Fort Dodge Regional Airport Fort Dodge US
ICAO: KFOD
IATA: FOD
Category: Medium
Scheduled Services: Yes

Elevation: 1156 ft
TransAlt. 18000 ft.

Airport Communications:
AWOS 3:118.775
MINNEAPOLIS CNTR:134
RDO:122.3
CTAF/UNICOM:122.95

KFOD Zoom In..

Runways:

(A) RW 06 length 6547 ft width 150 ft
ILS 109.10 / hdg 63

(B) RW 12 length 5301 ft width 100 ft
---- / hdg 125

(C) RW 24 length 6547 ft width 150 ft
---- / hdg 243

(D) RW 30 length 5301 ft width 100 ft
---- / hdg 305

Location; KFOD
Day. 23 / Time. 14.56 Zulu
* Altimeter: 30.05
* Temperature: -05° c. -23°f.
* Wind from: 320° Speed 07 kn.
Dewpoint: -07° c.
Visibility: 10 Statute Miles.
Clouds: Overcast 1800 ft.

KFOD 231456Z AUTO 32007KT 10SM OVC018 M05/M07 A3005 RMK AO2 SLP219 T10501072 51024 FZRANO


Wind From 320°
Speed 07 kn.

YouTube Music Video
 
jpsmedia.com for Web Design  worldairports.se 2018   terms of use